Flugplatz Texel (EHTX)

Hier findest Du alle Informationen zum Flugplatz Texel (EHTX).

Informationen für Piloten zum Flugplatz Texel

Hier findest Du alle relevanten Informationen, die Du als Pilot benötigst, um Texel anzufliegen.

Flugplatz: Texel ICAO-Code: EHTX
Frequenz Turm: 119,300 Mhz GAFOR Gebiet: -
Frequenz Ground: 119,300 Mhz Mogas: ja
Platzrunde: SO 1002 ft Landegebühr: -
Platzhöhe: - Sunrise: 07:09 Uhr UTC
Pisten: 04/22 - 1115 m x 40 m, GRAS Sunset: 15:42 Uhr UTC

Flugwetter am Flugplatz Texel

Die METAR Information stammen aus EDDG (221.34 km entfernt).

METAR Code:
2017/11/07 15:20
EDDG 071520Z VRB02KT CAVOK 07/05 Q1020 NOSIG

Flugschulen am Flugplatz Texel

Am Flugplatz Texel gibt es leider keine Flugschule.

Benachbarte Flugplätze und Flugschulen

Es gibt einen weiteren Flugplatz in einem Umkreis von 50 km um den Flugplatz Texel.

Flugplatz Middenmeer UL Platz 35.85 km
Jetzt anmelden

Passwort vergessen

Umfrage Archiv

Zieht Ihr im Zuge der Gewichtserhöhung auf 600 kg MTOW den Kauf eines neuen ULs in Erwägung?

Nein
48.1 %
Ja
33.7 %
Vielleicht
18.2 %
Stimmen: 181 | Diskussion (16)
Anzeige: Roland Aircraft
Statistik Alle Mitglieder

Aktuell sind 18 Besucher online, davon 2 Mitglieder und 16 Gäste.


Mitglieder online:
Hermi81  Chris_EDNC 

Anzeige: VFR Sprechfunk Simulator


Anzeige: Pocket FMS